createdAt,value
2022-09-24T00:01:42.684Z,11.92
2022-09-24T00:04:13.265Z,11.94
2022-09-24T00:06:44.389Z,11.91
2022-09-24T00:09:12.696Z,11.92
2022-09-24T00:11:41.243Z,11.95
2022-09-24T00:14:09.061Z,11.96
2022-09-24T00:16:37.025Z,11.99
2022-09-24T00:19:06.043Z,11.94
2022-09-24T00:21:37.467Z,11.93
2022-09-24T00:24:08.402Z,11.95
2022-09-24T00:26:51.158Z,11.91
2022-09-24T00:29:21.322Z,11.90
2022-09-24T00:31:50.778Z,11.88
2022-09-24T00:34:19.256Z,11.90
2022-09-24T00:36:48.715Z,11.92
2022-09-24T00:39:17.287Z,11.90
2022-09-24T00:41:47.841Z,11.91
2022-09-24T00:44:54.346Z,11.87
2022-09-24T00:47:34.767Z,11.83
2022-09-24T00:50:18.860Z,11.80
2022-09-24T00:52:52.627Z,11.77
2022-09-24T00:55:22.422Z,11.73
2022-09-24T00:57:53.064Z,11.68
2022-09-24T01:00:21.980Z,11.66
2022-09-24T01:02:53.269Z,11.65
2022-09-24T01:05:21.175Z,11.63
2022-09-24T01:07:50.227Z,11.62
2022-09-24T01:10:36.068Z,11.60
2022-09-24T01:13:14.967Z,11.61
2022-09-24T01:15:49.867Z,11.54
2022-09-24T01:18:28.195Z,11.55
2022-09-24T01:21:28.485Z,11.55
2022-09-24T01:24:22.910Z,11.48
2022-09-24T01:26:58.794Z,11.43
2022-09-24T01:29:52.381Z,11.39
2022-09-24T01:32:31.632Z,11.37
2022-09-24T01:35:03.380Z,11.35
2022-09-24T01:37:35.250Z,11.32
2022-09-24T01:40:05.704Z,11.31
2022-09-24T01:42:34.987Z,11.34
2022-09-24T01:45:06.417Z,11.34
2022-09-24T01:47:39.614Z,11.34
2022-09-24T01:50:08.918Z,11.32
2022-09-24T01:52:43.596Z,11.30
2022-09-24T01:55:15.706Z,11.29
2022-09-24T01:57:48.468Z,11.30
2022-09-24T02:00:20.269Z,11.30
2022-09-24T02:02:52.543Z,11.29
2022-09-24T02:05:25.200Z,11.31
2022-09-24T02:07:59.173Z,11.28
2022-09-24T02:10:32.606Z,11.28
2022-09-24T02:13:06.483Z,11.29
2022-09-24T02:15:41.254Z,11.28
2022-09-24T02:18:12.686Z,11.24
2022-09-24T02:20:44.260Z,11.24
2022-09-24T02:23:15.105Z,11.24
2022-09-24T02:25:46.985Z,11.23
2022-09-24T02:28:14.781Z,11.24
2022-09-24T02:30:50.205Z,11.24
2022-09-24T02:33:37.241Z,11.27
2022-09-24T02:36:05.583Z,11.31
2022-09-24T02:38:33.267Z,11.34
2022-09-24T02:41:01.324Z,11.35
2022-09-24T02:43:29.017Z,11.30
2022-09-24T02:45:58.044Z,11.28
2022-09-24T02:48:25.735Z,11.26
2022-09-24T02:50:53.802Z,11.24
2022-09-24T02:53:21.527Z,11.19
2022-09-24T02:55:50.620Z,11.17
2022-09-24T02:58:18.286Z,11.19
2022-09-24T03:00:46.001Z,11.15
2022-09-24T03:03:15.037Z,11.14
2022-09-24T03:05:42.888Z,11.14
2022-09-24T03:08:10.574Z,11.19
2022-09-24T03:10:38.213Z,11.15
2022-09-24T03:13:05.902Z,11.20
2022-09-24T03:15:33.718Z,11.18
2022-09-24T03:18:01.462Z,11.22
2022-09-24T03:20:30.917Z,11.20
2022-09-24T03:22:58.659Z,11.22
2022-09-24T03:25:26.845Z,11.22
2022-09-24T03:27:54.519Z,11.21
2022-09-24T03:30:39.586Z,11.14
2022-09-24T03:33:07.581Z,11.14
2022-09-24T03:35:36.603Z,11.16
2022-09-24T03:40:46.241Z,11.17
2022-09-24T03:43:14.030Z,11.11
2022-09-24T03:45:41.731Z,11.09
2022-09-24T03:48:09.575Z,11.03
2022-09-24T03:50:38.987Z,11.00
2022-09-24T03:53:06.770Z,11.00
2022-09-24T03:55:34.436Z,11.02
2022-09-24T03:58:02.320Z,11.03
2022-09-24T04:00:30.046Z,11.04
2022-09-24T04:02:57.789Z,11.07
2022-09-24T04:05:25.742Z,11.10
2022-09-24T04:07:54.774Z,11.18
2022-09-24T04:10:22.937Z,11.18
2022-09-24T04:12:50.712Z,11.19
2022-09-24T04:15:18.804Z,11.22
2022-09-24T04:17:50.877Z,11.23
2022-09-24T04:20:19.801Z,11.18
2022-09-24T04:22:47.590Z,11.13
2022-09-24T04:25:17.214Z,11.10
2022-09-24T04:27:44.933Z,11.11
2022-09-24T04:30:14.114Z,11.14
2022-09-24T04:32:42.640Z,11.15
2022-09-24T04:35:11.483Z,11.16
2022-09-24T04:37:39.342Z,11.16
2022-09-24T04:40:12.525Z,11.14
2022-09-24T04:42:42.112Z,11.13
2022-09-24T04:45:11.858Z,11.12
2022-09-24T04:47:41.904Z,11.12
2022-09-24T04:50:11.499Z,11.13
2022-09-24T04:52:39.879Z,11.16
2022-09-24T04:55:08.249Z,11.16
2022-09-24T04:57:36.452Z,11.15
2022-09-24T05:00:07.714Z,11.18
2022-09-24T05:02:35.564Z,11.18
2022-09-24T05:05:03.174Z,11.19
2022-09-24T05:07:30.697Z,11.17
2022-09-24T05:09:58.296Z,11.18
2022-09-24T05:12:26.070Z,11.12
2022-09-24T05:14:53.667Z,11.12
2022-09-24T05:17:22.628Z,11.13
2022-09-24T05:19:50.157Z,11.12
2022-09-24T05:22:17.730Z,11.10
2022-09-24T05:24:45.330Z,11.11
2022-09-24T05:27:11.992Z,11.14
2022-09-24T05:29:40.502Z,11.11
2022-09-24T05:32:09.589Z,11.12
2022-09-24T05:34:38.574Z,11.11
2022-09-24T05:37:06.140Z,11.12
2022-09-24T05:39:34.439Z,11.08
2022-09-24T05:42:03.657Z,11.13
2022-09-24T05:44:31.500Z,11.16
2022-09-24T05:46:59.743Z,11.24
2022-09-24T05:49:27.463Z,11.28
2022-09-24T05:51:56.820Z,11.37
2022-09-24T05:54:24.573Z,11.42
2022-09-24T05:56:52.117Z,11.43
2022-09-24T05:59:19.834Z,11.43
2022-09-24T06:01:48.103Z,11.44
2022-09-24T06:04:16.056Z,11.42
2022-09-24T06:06:43.890Z,11.46
2022-09-24T06:09:13.607Z,11.50
2022-09-24T06:11:42.060Z,11.55
2022-09-24T06:14:09.812Z,11.61
2022-09-24T06:16:37.768Z,11.69
2022-09-24T06:19:05.621Z,11.72
2022-09-24T06:21:33.485Z,11.75
2022-09-24T06:24:01.331Z,11.80
2022-09-24T06:26:30.992Z,11.86
2022-09-24T06:29:04.405Z,11.85
2022-09-24T06:31:32.886Z,11.94
2022-09-24T06:34:02.567Z,11.98
2022-09-24T06:36:30.194Z,12.05
2022-09-24T06:38:58.558Z,12.16
2022-09-24T06:41:26.260Z,12.31
2022-09-24T06:43:56.490Z,12.36
2022-09-24T06:46:25.780Z,12.42
2022-09-24T06:48:54.797Z,12.47
2022-09-24T06:51:22.676Z,12.56
2022-09-24T06:53:52.401Z,12.59
2022-09-24T06:56:20.091Z,12.69
2022-09-24T06:58:47.862Z,12.70
2022-09-24T07:01:16.987Z,12.79
2022-09-24T07:03:44.790Z,12.88
2022-09-24T07:06:12.398Z,12.91
2022-09-24T07:08:40.157Z,12.94
2022-09-24T07:11:08.922Z,13.01
2022-09-24T07:13:36.705Z,13.05
2022-09-24T07:16:04.459Z,13.09
2022-09-24T07:18:33.587Z,13.18
2022-09-24T07:21:01.269Z,13.20
2022-09-24T07:23:28.931Z,13.30
2022-09-24T07:25:57.704Z,13.36
2022-09-24T07:28:25.525Z,13.45
2022-09-24T07:30:58.210Z,13.57
2022-09-24T07:33:25.968Z,13.68
2022-09-24T07:35:55.065Z,13.72
2022-09-24T07:38:23.164Z,13.76
2022-09-24T07:40:51.010Z,13.81
2022-09-24T07:43:18.764Z,13.73
2022-09-24T07:45:46.622Z,13.84
2022-09-24T07:48:15.659Z,13.86
2022-09-24T07:50:43.821Z,13.87
2022-09-24T07:53:13.826Z,13.90
2022-09-24T07:55:41.915Z,13.82
2022-09-24T07:58:12.672Z,13.98
2022-09-24T08:00:40.422Z,14.07
2022-09-24T08:03:08.367Z,14.14
2022-09-24T08:05:36.097Z,14.19
2022-09-24T08:08:03.809Z,14.21
2022-09-24T08:10:32.932Z,14.19
2022-09-24T08:13:02.679Z,14.20
2022-09-24T08:15:30.463Z,14.23
2022-09-24T08:18:01.987Z,14.25
2022-09-24T08:20:29.762Z,14.25
2022-09-24T08:23:02.136Z,14.23
2022-09-24T08:25:31.268Z,14.27
2022-09-24T08:28:04.039Z,14.27
2022-09-24T08:30:31.924Z,14.25
2022-09-24T08:32:59.621Z,14.25
2022-09-24T08:35:27.718Z,14.17
2022-09-24T08:37:55.761Z,14.28
2022-09-24T08:40:27.125Z,14.46
2022-09-24T08:43:07.478Z,14.57
2022-09-24T08:46:03.019Z,14.79
2022-09-24T08:48:34.326Z,14.94
2022-09-24T08:51:06.621Z,15.04
2022-09-24T08:53:45.896Z,15.02
2022-09-24T08:56:24.875Z,15.05
2022-09-24T08:58:58.196Z,15.12
2022-09-24T09:01:37.019Z,15.20
2022-09-24T09:04:19.898Z,15.37
2022-09-24T09:06:57.024Z,15.61
2022-09-24T09:09:30.034Z,15.68
2022-09-24T09:12:02.013Z,15.74
2022-09-24T09:14:42.247Z,15.71
2022-09-24T09:17:21.784Z,15.72
2022-09-24T09:19:56.109Z,15.69
2022-09-24T09:22:29.099Z,15.64
2022-09-24T09:25:04.022Z,15.71
2022-09-24T09:27:32.982Z,15.78
2022-09-24T09:30:09.257Z,15.86
2022-09-24T09:32:58.623Z,15.94
2022-09-24T09:35:34.122Z,16.05
2022-09-24T09:38:10.671Z,16.21
2022-09-24T09:40:46.243Z,16.33
2022-09-24T09:43:15.505Z,16.43
2022-09-24T09:45:49.336Z,16.47
2022-09-24T09:48:21.407Z,16.48
2022-09-24T09:50:50.453Z,16.52
2022-09-24T09:53:23.113Z,16.52
2022-09-24T09:55:56.450Z,16.59
2022-09-24T09:58:25.806Z,16.60
2022-09-24T10:00:54.260Z,16.55
2022-09-24T10:03:25.848Z,16.63
2022-09-24T10:05:57.206Z,16.68
2022-09-24T10:08:26.176Z,16.69
2022-09-24T10:10:56.201Z,16.68
2022-09-24T10:13:24.333Z,16.66
2022-09-24T10:15:53.664Z,16.76
2022-09-24T10:18:31.111Z,16.86
2022-09-24T10:21:02.522Z,16.80
2022-09-24T10:23:36.705Z,16.79
2022-09-24T10:26:06.072Z,16.84
2022-09-24T10:28:52.544Z,16.90
2022-09-24T10:31:23.618Z,16.89
2022-09-24T10:33:55.781Z,16.88
2022-09-24T10:36:25.258Z,16.87
2022-09-24T10:39:03.543Z,16.91
2022-09-24T10:41:32.734Z,16.98
2022-09-24T10:44:05.366Z,17.12
2022-09-24T10:46:52.102Z,17.26
2022-09-24T10:49:34.945Z,17.44
2022-09-24T10:52:10.100Z,17.63
2022-09-24T10:54:51.321Z,17.92
2022-09-24T10:57:29.677Z,18.20
2022-09-24T11:00:05.420Z,18.22
2022-09-24T11:03:09.574Z,18.54
2022-09-24T11:05:43.239Z,18.81
2022-09-24T11:08:25.480Z,19.00
2022-09-24T11:11:16.148Z,19.21
2022-09-24T11:13:55.083Z,19.24
2022-09-24T11:16:49.721Z,19.26
2022-09-24T11:19:34.425Z,19.44
2022-09-24T11:22:12.468Z,19.70
2022-09-24T11:24:54.972Z,19.94
2022-09-24T11:27:42.204Z,20.16
2022-09-24T11:30:13.567Z,20.33
2022-09-24T11:33:01.223Z,20.42
2022-09-24T11:35:42.416Z,20.67
2022-09-24T11:38:17.942Z,20.55
2022-09-24T11:41:09.656Z,20.43
2022-09-24T11:44:00.814Z,20.69
2022-09-24T11:46:45.086Z,20.69
2022-09-24T11:49:40.920Z,20.83
2022-09-24T11:52:15.253Z,21.09
2022-09-24T11:54:51.861Z,21.32
2022-09-24T11:57:25.058Z,21.04
2022-09-24T12:00:04.738Z,21.17
2022-09-24T12:02:36.335Z,21.20
2022-09-24T12:05:08.129Z,20.95
2022-09-24T12:07:43.747Z,20.80
2022-09-24T12:10:29.640Z,20.54
2022-09-24T12:13:05.714Z,20.35
2022-09-24T12:15:44.172Z,20.43
2022-09-24T12:18:17.525Z,20.51
2022-09-24T12:20:49.619Z,20.64
2022-09-24T12:23:22.553Z,20.53
2022-09-24T12:25:53.577Z,20.65
2022-09-24T12:28:40.145Z,20.81
2022-09-24T12:31:33.187Z,20.98
2022-09-24T12:34:08.004Z,20.88
2022-09-24T12:36:57.114Z,20.83
2022-09-24T12:39:29.217Z,20.85
2022-09-24T12:42:03.029Z,20.78
2022-09-24T12:44:38.631Z,20.54
2022-09-24T12:47:16.243Z,20.47
2022-09-24T12:49:51.335Z,20.26
2022-09-24T12:52:24.848Z,19.98
2022-09-24T12:54:59.040Z,19.76
2022-09-24T12:57:33.668Z,19.92
2022-09-24T13:00:03.069Z,20.17
2022-09-24T13:02:43.985Z,20.52
2022-09-24T13:05:28.200Z,20.76
2022-09-24T13:07:59.207Z,21.27
2022-09-24T13:10:29.834Z,21.56
2022-09-24T13:13:00.797Z,21.72
2022-09-24T13:15:35.110Z,21.74
2022-09-24T13:18:19.270Z,22.18
2022-09-24T13:21:00.117Z,23.28
2022-09-24T13:23:35.310Z,24.09
2022-09-24T13:26:05.398Z,24.77
2022-09-24T13:28:51.266Z,25.28
2022-09-24T13:31:27.245Z,25.11
2022-09-24T13:33:58.220Z,25.31
2022-09-24T13:36:34.570Z,25.91
2022-09-24T13:39:07.476Z,26.61
2022-09-24T13:41:45.967Z,27.11
2022-09-24T13:44:21.602Z,26.26
2022-09-24T13:46:55.030Z,25.74
2022-09-24T13:49:24.753Z,25.10
2022-09-24T13:52:00.872Z,24.44
2022-09-24T13:54:34.845Z,24.31
2022-09-24T13:57:13.053Z,23.91
2022-09-24T13:59:42.306Z,23.45
2022-09-24T14:02:25.586Z,23.10
2022-09-24T14:04:58.530Z,23.00
2022-09-24T14:07:28.519Z,22.55
2022-09-24T14:10:03.822Z,22.18
2022-09-24T14:12:31.719Z,22.09
2022-09-24T14:15:00.997Z,21.96
2022-09-24T14:17:28.809Z,21.86
2022-09-24T14:19:57.810Z,21.64
2022-09-24T14:22:31.315Z,21.66
2022-09-24T14:25:04.160Z,21.55
2022-09-24T14:27:33.301Z,21.34
2022-09-24T14:30:05.118Z,21.00
2022-09-24T14:32:35.717Z,20.93
2022-09-24T14:35:08.786Z,20.80
2022-09-24T14:37:39.686Z,20.66
2022-09-24T14:40:13.638Z,20.50
2022-09-24T14:42:43.960Z,20.32
2022-09-24T14:45:20.767Z,20.29
2022-09-24T14:47:48.837Z,20.13
2022-09-24T14:50:35.394Z,20.16
2022-09-24T14:53:12.413Z,20.31
2022-09-24T14:55:41.628Z,20.58
2022-09-24T14:58:27.163Z,21.05
2022-09-24T15:00:58.235Z,21.28
2022-09-24T15:03:33.365Z,21.28
2022-09-24T15:06:14.606Z,21.31
2022-09-24T15:08:43.198Z,21.17
2022-09-24T15:11:17.872Z,21.05
2022-09-24T15:13:45.832Z,20.99
2022-09-24T15:16:22.504Z,20.86
2022-09-24T15:18:59.877Z,20.88
2022-09-24T15:21:27.863Z,20.61
2022-09-24T15:23:56.966Z,20.63
2022-09-24T15:26:29.302Z,20.57
2022-09-24T15:28:58.169Z,20.47
2022-09-24T15:31:27.436Z,20.41
2022-09-24T15:33:56.005Z,20.24
2022-09-24T15:36:24.344Z,20.03
2022-09-24T15:38:53.339Z,19.73
2022-09-24T15:41:21.117Z,19.69
2022-09-24T15:43:48.866Z,19.60
2022-09-24T15:46:17.071Z,19.49
2022-09-24T15:48:46.715Z,19.30
2022-09-24T15:51:18.327Z,19.26
2022-09-24T15:53:46.234Z,19.10
2022-09-24T15:56:15.166Z,19.02
2022-09-24T15:58:42.917Z,18.91
2022-09-24T16:01:16.717Z,18.90
2022-09-24T16:03:46.092Z,18.87
2022-09-24T16:06:14.309Z,18.81
2022-09-24T16:08:43.703Z,18.74
2022-09-24T16:11:11.406Z,18.70
2022-09-24T16:13:39.023Z,18.53
2022-09-24T16:16:08.223Z,18.45
2022-09-24T16:18:38.046Z,18.45
2022-09-24T16:21:08.335Z,18.41
2022-09-24T16:23:36.100Z,18.41
2022-09-24T16:26:03.794Z,18.43
2022-09-24T16:28:31.962Z,18.45
2022-09-24T16:30:59.724Z,18.44
2022-09-24T16:33:27.484Z,18.38
2022-09-24T16:35:55.243Z,18.36
2022-09-24T16:38:24.349Z,18.29
2022-09-24T16:41:00.712Z,18.24
2022-09-24T16:43:28.853Z,18.26
2022-09-24T16:46:01.375Z,18.30
2022-09-24T16:48:29.090Z,18.27
2022-09-24T16:51:03.237Z,18.14
2022-09-24T16:53:34.236Z,18.10
2022-09-24T16:56:06.650Z,18.06
2022-09-24T16:58:34.466Z,18.01
2022-09-24T17:01:05.285Z,17.94
2022-09-24T17:03:33.344Z,17.90
2022-09-24T17:06:01.209Z,17.79
2022-09-24T17:08:49.319Z,17.73
2022-09-24T17:11:17.972Z,17.64
2022-09-24T17:13:47.406Z,17.58
2022-09-24T17:16:15.672Z,17.52
2022-09-24T17:18:43.417Z,17.43
2022-09-24T17:21:13.388Z,17.35
2022-09-24T17:23:41.462Z,17.28
2022-09-24T17:26:11.489Z,17.17
2022-09-24T17:28:42.482Z,17.14
2022-09-24T17:31:12.633Z,17.07
2022-09-24T17:33:43.755Z,16.97
2022-09-24T17:36:14.456Z,16.91
2022-09-24T17:38:42.810Z,16.88
2022-09-24T17:41:12.422Z,16.82
2022-09-24T17:43:42.878Z,16.80
2022-09-24T17:46:14.458Z,16.82
2022-09-24T17:48:45.561Z,16.81
2022-09-24T17:51:16.216Z,16.79
2022-09-24T17:53:44.098Z,16.75
2022-09-24T17:56:14.917Z,16.42
2022-09-24T17:58:47.850Z,16.29
2022-09-24T18:01:18.963Z,16.21
2022-09-24T18:03:48.737Z,16.19
2022-09-24T18:06:16.453Z,16.21
2022-09-24T18:08:45.955Z,16.19
2022-09-24T18:11:15.858Z,16.07
2022-09-24T18:13:45.518Z,16.05
2022-09-24T18:16:14.913Z,16.08
2022-09-24T18:18:44.403Z,16.03
2022-09-24T18:21:14.408Z,16.01
2022-09-24T18:23:42.570Z,15.96
2022-09-24T18:26:11.888Z,15.93
2022-09-24T18:28:40.536Z,15.83
2022-09-24T18:31:11.387Z,15.64
2022-09-24T18:33:40.986Z,15.59
2022-09-24T18:36:10.859Z,15.61
2022-09-24T18:38:38.820Z,15.60
2022-09-24T18:41:09.756Z,15.61
2022-09-24T18:43:37.682Z,15.60
2022-09-24T18:46:06.429Z,15.59
2022-09-24T18:48:36.076Z,15.60
2022-09-24T18:51:05.062Z,15.54
2022-09-24T18:53:33.095Z,15.50
2022-09-24T18:56:05.432Z,15.47
2022-09-24T18:58:33.038Z,15.39
2022-09-24T19:01:01.907Z,15.39
2022-09-24T19:03:30.471Z,15.32
2022-09-24T19:06:02.098Z,15.31
2022-09-24T19:08:32.137Z,15.29
2022-09-24T19:11:04.379Z,15.24
2022-09-24T19:13:32.514Z,15.30
2022-09-24T19:16:05.586Z,15.10
2022-09-24T19:18:34.254Z,15.09
2022-09-24T19:21:06.283Z,15.05
2022-09-24T19:23:37.470Z,15.05
2022-09-24T19:26:06.624Z,14.94
2022-09-24T19:28:34.931Z,14.96
2022-09-24T19:31:03.081Z,14.94
2022-09-24T19:33:30.821Z,14.92
2022-09-24T19:36:01.750Z,14.88
2022-09-24T19:38:32.394Z,14.84
2022-09-24T19:41:01.572Z,14.78
2022-09-24T19:43:30.963Z,14.63
2022-09-24T19:46:00.329Z,14.67
2022-09-24T19:48:29.810Z,14.63
2022-09-24T19:51:00.783Z,14.67
2022-09-24T19:53:31.588Z,14.70
2022-09-24T19:55:59.615Z,14.66
2022-09-24T19:58:28.034Z,14.64
2022-09-24T20:00:56.015Z,14.65
2022-09-24T20:03:25.949Z,14.65
2022-09-24T20:05:53.794Z,14.62
2022-09-24T20:08:23.905Z,14.61
2022-09-24T20:10:52.989Z,14.59
2022-09-24T20:13:20.796Z,14.58
2022-09-24T20:15:48.767Z,14.54
2022-09-24T20:18:16.500Z,14.48
2022-09-24T20:20:44.236Z,14.45
2022-09-24T20:23:12.024Z,14.46
2022-09-24T20:25:57.750Z,14.48
2022-09-24T20:28:26.817Z,14.47
2022-09-24T20:30:54.764Z,14.44
2022-09-24T20:33:22.546Z,14.44
2022-09-24T20:35:50.241Z,14.40
2022-09-24T20:38:18.699Z,14.35
2022-09-24T20:40:46.465Z,14.33
2022-09-24T20:43:14.326Z,14.35
2022-09-24T20:45:43.352Z,14.31
2022-09-24T20:48:12.074Z,14.28
2022-09-24T20:50:40.133Z,14.27
2022-09-24T20:53:08.040Z,14.25
2022-09-24T20:55:35.897Z,14.25
2022-09-24T20:58:03.576Z,14.20
2022-09-24T21:00:35.809Z,14.18
2022-09-24T21:03:25.548Z,14.16
2022-09-24T21:05:53.222Z,14.10
2022-09-24T21:08:20.923Z,14.09
2022-09-24T21:10:48.656Z,14.10
2022-09-24T21:13:16.326Z,14.09
2022-09-24T21:15:44.083Z,14.10
2022-09-24T21:18:22.678Z,14.07
2022-09-24T21:20:51.285Z,14.03
2022-09-24T21:23:19.042Z,14.02
2022-09-24T21:25:54.347Z,14.01
2022-09-24T21:28:22.668Z,13.97
2022-09-24T21:30:57.972Z,13.91
2022-09-24T21:33:27.110Z,13.79
2022-09-24T21:35:57.440Z,13.73
2022-09-24T21:38:25.126Z,13.73
2022-09-24T21:40:54.435Z,13.75
2022-09-24T21:43:23.562Z,13.76
2022-09-24T21:45:52.424Z,13.76
2022-09-24T21:48:20.316Z,13.73
2022-09-24T21:50:49.390Z,13.67
2022-09-24T21:53:17.075Z,13.65
2022-09-24T21:55:48.367Z,13.63
2022-09-24T21:58:16.280Z,13.59
2022-09-24T22:00:43.984Z,13.58
2022-09-24T22:03:12.310Z,13.59
2022-09-24T22:05:42.931Z,13.55
2022-09-24T22:08:12.998Z,13.56
2022-09-24T22:10:41.699Z,13.55
2022-09-24T22:13:11.035Z,13.54
2022-09-24T22:15:38.849Z,13.55
2022-09-24T22:18:06.685Z,13.56
2022-09-24T22:20:34.348Z,13.55
2022-09-24T22:23:02.000Z,13.56
2022-09-24T22:25:31.290Z,13.56
2022-09-24T22:27:58.938Z,13.54
2022-09-24T22:30:26.777Z,13.57
2022-09-24T22:32:54.657Z,13.57
2022-09-24T22:35:43.062Z,13.53
2022-09-24T22:38:11.229Z,13.46
2022-09-24T22:40:40.507Z,13.47
2022-09-24T22:43:08.206Z,13.48
2022-09-24T22:45:35.851Z,13.46
2022-09-24T22:48:03.583Z,13.47
2022-09-24T22:50:31.247Z,13.46
2022-09-24T22:52:58.950Z,13.44
2022-09-24T22:55:26.657Z,13.41
2022-09-24T22:57:56.020Z,13.42
2022-09-24T23:00:23.691Z,13.35
2022-09-24T23:02:51.448Z,13.34
2022-09-24T23:05:19.221Z,13.35
2022-09-24T23:07:46.966Z,13.36
2022-09-24T23:10:14.689Z,13.35
2022-09-24T23:12:42.374Z,13.32
2022-09-24T23:15:11.967Z,13.30
2022-09-24T23:17:39.741Z,13.32
2022-09-24T23:20:09.311Z,13.28
2022-09-24T23:22:36.989Z,13.24
2022-09-24T23:25:05.395Z,13.28
2022-09-24T23:27:33.222Z,13.35
2022-09-24T23:30:01.452Z,13.37
2022-09-24T23:32:31.263Z,13.36
2022-09-24T23:34:58.990Z,13.36
2022-09-24T23:37:26.666Z,13.35
2022-09-24T23:39:54.339Z,13.35
2022-09-24T23:42:22.003Z,13.36
2022-09-24T23:44:49.644Z,13.39
2022-09-24T23:47:18.053Z,13.42
2022-09-24T23:49:47.043Z,13.44
2022-09-24T23:52:14.708Z,13.44
2022-09-24T23:54:42.956Z,13.45
2022-09-24T23:57:11.201Z,13.45
2022-09-24T23:59:39.142Z,13.45
